Time;durP1;ratioP1;P1;durP2;ratioP2;P2;SDS_P1;SDS_P2;PMS_P1;PMS_P2;Temp;Humidity;BMP_temperature;BMP_pressure;BME280_temperature;BME280_humidity;BME280_pressure;Samples;Min_cycle;Max_cycle;Signal;HPM_P1;HPM_P2
2023/08/21 00:00:48;;;;;;;7.70;7.00;;;;;;;20.23;100.00;96833.88;5008424;28;104254;-77
2023/08/21 00:03:15;;;;;;;7.60;7.00;;;;;;;20.32;100.00;96825.88;5009185;28;103123;-77
2023/08/21 00:05:44;;;;;;;7.63;6.80;;;;;;;20.20;100.00;96834.47;5008308;28;101941;-80
2023/08/21 00:08:11;;;;;;;7.03;6.37;;;;;;;20.15;100.00;96836.47;5008474;28;105498;-81
2023/08/21 00:10:38;;;;;;;8.80;8.00;;;;;;;20.18;100.00;96831.28;5011213;28;105549;-81
2023/08/21 00:13:06;;;;;;;8.23;7.43;;;;;;;20.10;100.00;96829.25;5007636;28;105559;-80
2023/08/21 00:15:33;;;;;;;7.93;7.17;;;;;;;20.31;100.00;96832.34;5007593;28;105286;-80
2023/08/21 00:18:00;;;;;;;8.00;7.30;;;;;;;20.36;100.00;96832.25;5008374;28;101986;-77
2023/08/21 00:20:27;;;;;;;8.27;7.50;;;;;;;20.38;100.00;96827.38;5008341;28;104462;-78
2023/08/21 00:22:55;;;;;;;7.57;6.80;;;;;;;20.41;100.00;96830.28;5007697;28;105886;-78
2023/08/21 00:25:23;;;;;;;8.23;7.53;;;;;;;20.36;100.00;96816.06;5008250;28;101930;-78
2023/08/21 00:27:50;;;;;;;7.60;6.87;;;;;;;20.41;100.00;96818.66;5008316;28;105378;-78
2023/08/21 00:30:17;;;;;;;7.20;6.60;;;;;;;20.31;100.00;96819.66;5007806;28;105319;-78
2023/08/21 00:32:44;;;;;;;7.23;6.63;;;;;;;20.36;100.00;96822.25;5011483;28;102024;-78
2023/08/21 00:35:11;;;;;;;7.63;6.93;;;;;;;20.21;100.00;96817.16;5007549;28;105233;-78
2023/08/21 00:37:38;;;;;;;7.60;6.93;;;;;;;20.02;100.00;96813.75;5008128;28;102000;-78
2023/08/21 00:40:08;;;;;;;8.80;7.23;;;;;;;19.90;100.00;96813.41;5008283;28;105755;-78
2023/08/21 00:42:35;;;;;;;7.53;6.93;;;;;;;19.94;100.00;96817.13;5007295;28;105784;-78
2023/08/21 00:45:03;;;;;;;7.80;7.10;;;;;;;19.90;100.00;96823.44;5007981;28;101962;-78
2023/08/21 00:47:30;;;;;;;8.10;7.27;;;;;;;19.97;100.00;96816.53;5007186;28;105569;-78
2023/08/21 00:49:57;;;;;;;7.07;6.47;;;;;;;19.97;100.00;96823.81;5007251;28;105594;-78
2023/08/21 00:52:25;;;;;;;7.87;7.27;;;;;;;19.89;100.00;96821.84;5007832;28;101919;-78
2023/08/21 00:54:52;;;;;;;7.13;6.53;;;;;;;19.96;100.00;96822.22;5010532;28;105440;-78
2023/08/21 00:57:21;;;;;;;8.37;7.67;;;;;;;19.93;100.00;96825.50;5007736;28;102110;-78
2023/08/21 00:59:48;;;;;;;7.30;6.80;;;;;;;19.90;100.00;96816.13;5008001;28;105395;-78
2023/08/21 01:02:16;;;;;;;7.20;6.60;;;;;;;20.07;100.00;96820.97;5007228;28;104982;-80
2023/08/21 01:04:43;;;;;;;6.83;6.23;;;;;;;20.07;100.00;96819.09;5007733;28;101990;-80
2023/08/21 01:07:10;;;;;;;8.33;7.50;;;;;;;19.87;100.00;96822.13;5007683;28;105419;-80
2023/08/21 01:09:45;;;;;;;7.60;6.90;;;;;;;19.82;100.00;96814.13;5007105;28;104490;-80
2023/08/21 01:12:23;;;;;;;7.50;6.80;;;;;;;19.77;100.00;96821.50;5007602;28;101983;-79
2023/08/21 01:14:59;;;;;;;7.40;6.70;;;;;;;19.51;100.00;96825.75;5007796;28;104873;-79
2023/08/21 01:17:27;;;;;;;7.00;6.30;;;;;;;19.70;100.00;96823.78;5010438;28;102160;-78
2023/08/21 01:19:55;;;;;;;6.93;6.33;;;;;;;19.65;100.00;96823.88;5007626;28;105671;-79
2023/08/21 01:22:26;;;;;;;6.87;6.30;;;;;;;19.56;100.00;96822.97;5006901;28;105483;-87
2023/08/21 01:24:55;;;;;;;6.77;6.27;;;;;;;19.64;100.00;96831.19;5008991;28;101854;-78
2023/08/21 01:27:22;;;;;;;8.33;7.03;;;;;;;19.56;100.00;96829.16;5010861;28;104939;-77
2023/08/21 01:29:50;;;;;;;8.53;7.40;;;;;;;19.43;100.00;96832.63;5010268;28;105909;-77
2023/08/21 01:32:22;;;;;;;8.70;8.00;;;;;;;19.51;100.00;96831.16;5010719;28;102161;-77
2023/08/21 01:34:52;;;;;;;7.67;7.03;;;;;;;19.43;100.00;96829.94;5010855;28;105274;-77
2023/08/21 01:37:20;;;;;;;7.83;7.07;;;;;;;19.51;100.00;96825.75;5013656;28;106008;-77
2023/08/21 01:39:49;;;;;;;7.87;7.27;;;;;;;19.65;100.00;96834.66;5010699;28;105291;-77
2023/08/21 01:42:18;;;;;;;8.93;7.20;;;;;;;19.61;100.00;96830.97;5009892;28;104983;-77
2023/08/21 01:44:46;;;;;;;7.70;7.10;;;;;;;19.44;100.00;96819.91;5010660;28;101878;-77
2023/08/21 01:47:13;;;;;;;7.60;7.00;;;;;;;19.35;100.00;96817.09;5010100;28;105534;-77
2023/08/21 01:49:39;;;;;;;8.53;7.73;;;;;;;19.27;100.00;96820.47;5009996;28;105022;-77
2023/08/21 01:52:07;;;;;;;8.20;7.50;;;;;;;19.22;100.00;96828.66;5010378;28;101896;-77
2023/08/21 01:54:34;;;;;;;7.50;6.90;;;;;;;19.32;100.00;96827.69;5010484;28;105239;-77
2023/08/21 01:57:01;;;;;;;7.33;6.73;;;;;;;19.34;100.00;96826.28;5009824;28;103065;-77
2023/08/21 01:59:29;;;;;;;8.53;7.70;;;;;;;19.36;100.00;96823.31;5013999;28;102159;-80
2023/08/21 02:01:57;;;;;;;8.37;7.37;;;;;;;19.37;100.00;96828.41;5009738;28;105303;-78
2023/08/21 02:04:25;;;;;;;8.10;7.30;;;;;;;19.38;100.00;96824.63;5010559;28;102305;-78
2023/08/21 02:06:52;;;;;;;7.73;7.13;;;;;;;19.44;100.00;96814.53;5010376;28;105058;-78
2023/08/21 02:09:19;;;;;;;8.20;7.43;;;;;;;19.43;100.00;96812.94;5009532;28;105875;-78
2023/08/21 02:11:46;;;;;;;7.80;7.10;;;;;;;19.42;100.00;96811.34;5010128;28;101903;-78
2023/08/21 02:14:13;;;;;;;7.73;7.10;;;;;;;19.27;100.00;96814.28;5010245;28;105382;-79
2023/08/21 02:16:42;;;;;;;7.40;6.80;;;;;;;19.15;100.00;96824.69;5009384;28;105662;-79
2023/08/21 02:19:09;;;;;;;7.97;7.27;;;;;;;19.13;100.00;96830.38;5010189;28;101946;-79
2023/08/21 02:21:37;;;;;;;8.50;7.33;;;;;;;19.03;100.00;96821.66;5013111;28;105067;-79
2023/08/21 02:24:04;;;;;;;8.03;7.23;;;;;;;19.18;100.00;96832.22;5009895;28;101918;-79
2023/08/21 02:26:32;;;;;;;8.13;7.43;;;;;;;19.16;100.00;96827.09;5009831;28;105173;-79
2023/08/21 02:28:58;;;;;;;8.60;7.80;;;;;;;19.05;100.00;96824.84;5009461;28;104245;-74
2023/08/21 02:31:25;;;;;;;8.57;7.87;;;;;;;18.92;100.00;96831.00;5010104;28;101922;-73
2023/08/21 02:33:54;;;;;;;8.27;7.47;;;;;;;19.10;100.00;96830.16;5009571;28;105291;-73
2023/08/21 02:36:20;;;;;;;7.60;6.90;;;;;;;19.12;100.00;96833.38;5008704;28;105335;-74
2023/08/21 02:38:47;;;;;;;8.73;7.93;;;;;;;19.06;100.00;96834.53;5009597;28;101918;-76
2023/08/21 02:41:14;;;;;;;7.77;6.83;;;;;;;18.91;100.00;96829.38;5009899;28;105324;-77
2023/08/21 02:43:41;;;;;;;7.47;6.80;;;;;;;18.91;100.00;96824.00;5012493;28;105620;-76
2023/08/21 02:46:08;;;;;;;8.07;7.27;;;;;;;19.10;100.00;96820.19;5009315;28;105703;-76
2023/08/21 02:48:35;;;;;;;8.80;8.07;;;;;;;19.08;100.00;96821.56;5008995;28;106041;-77
2023/08/21 02:51:03;;;;;;;8.70;8.00;;;;;;;18.86;100.00;96803.28;5009541;28;102086;-77
2023/08/21 02:53:30;;;;;;;8.40;7.30;;;;;;;18.82;100.00;96812.25;5009302;28;105757;-77
2023/08/21 02:55:57;;;;;;;8.00;7.40;;;;;;;18.79;100.00;96808.25;5009100;28;105236;-77
2023/08/21 02:58:24;;;;;;;9.00;8.10;;;;;;;18.57;100.00;96816.13;5009643;28;101976;-77
2023/08/21 03:00:51;;;;;;;7.90;7.30;;;;;;;18.62;100.00;96817.94;5009439;28;105126;-76
2023/08/21 03:03:18;;;;;;;8.43;7.33;;;;;;;18.50;100.00;96810.28;5008827;28;105261;-76
2023/08/21 03:05:45;;;;;;;8.13;7.43;;;;;;;18.52;100.00;96810.78;5012903;28;101918;-76
2023/08/21 03:08:13;;;;;;;8.30;7.60;;;;;;;18.51;100.00;96817.28;5008641;28;105765;-76
2023/08/21 03:10:40;;;;;;;8.20;7.60;;;;;;;18.59;100.00;96815.84;5009510;28;101897;-75
2023/08/21 03:13:07;;;;;;;9.00;8.20;;;;;;;18.75;100.00;96820.69;5009194;28;105021;-76
2023/08/21 03:15:35;;;;;;;8.23;7.43;;;;;;;18.82;100.00;96831.94;5008733;28;105513;-77
2023/08/21 03:18:02;;;;;;;8.30;7.60;;;;;;;18.87;100.00;96831.88;5009223;28;102489;-77
2023/08/21 03:20:29;;;;;;;8.47;7.80;;;;;;;19.00;100.00;96828.44;5009312;28;104894;-77
2023/08/21 03:22:57;;;;;;;8.70;8.00;;;;;;;19.00;100.00;96819.53;5008280;28;105509;-77
2023/08/21 03:25:26;;;;;;;9.77;8.87;;;;;;;18.93;100.00;96819.91;5012673;28;102283;-77
2023/08/21 03:27:53;;;;;;;8.50;7.70;;;;;;;19.02;100.00;96828.94;5008377;28;105532;-77
2023/08/21 03:30:21;;;;;;;8.30;7.60;;;;;;;18.89;100.00;96828.88;5009060;28;102023;-77
2023/08/21 03:32:48;;;;;;;9.13;7.80;;;;;;;19.19;100.00;96831.13;5008750;28;105185;-77
2023/08/21 03:35:15;;;;;;;9.07;8.17;;;;;;;19.24;100.00;96825.66;5008296;28;105639;-78
2023/08/21 03:37:42;;;;;;;8.83;8.03;;;;;;;19.22;100.00;96820.56;5008725;28;102077;-78
2023/08/21 03:40:13;;;;;;;8.87;7.60;;;;;;;19.19;100.00;96821.09;5008848;28;104885;-78
2023/08/21 03:42:43;;;;;;;7.80;7.20;;;;;;;19.13;100.00;96822.28;5008359;28;105148;-78
2023/08/21 03:45:10;;;;;;;10.87;8.87;;;;;;;18.61;100.00;96827.94;5008684;28;101957;-78
2023/08/21 03:47:37;;;;;;;9.67;8.77;;;;;;;18.59;100.00;96830.09;5009974;28;105755;-78
2023/08/21 03:50:10;;;;;;;8.97;8.07;;;;;;;18.76;100.00;96829.59;5008728;28;102064;-80
2023/08/21 03:52:37;;;;;;;9.87;8.93;;;;;;;18.81;100.00;96838.41;5008601;28;105114;-80
2023/08/21 03:55:05;;;;;;;8.33;7.53;;;;;;;18.81;100.00;96837.63;5008249;28;105727;-79
2023/08/21 03:57:32;;;;;;;8.57;7.77;;;;;;;18.85;100.00;96839.44;5008667;28;102113;-79
2023/08/21 04:00:00;;;;;;;8.50;7.90;;;;;;;18.94;100.00;96845.78;5008559;28;105114;-77
2023/08/21 04:02:27;;;;;;;9.20;8.30;;;;;;;18.92;100.00;96844.47;5007942;28;105422;-76
2023/08/21 04:04:54;;;;;;;9.43;8.60;;;;;;;18.99;100.00;96840.31;5008449;28;101995;-76
2023/08/21 04:07:21;;;;;;;9.00;8.13;;;;;;;19.09;100.00;96850.13;5008401;28;105383;-77
2023/08/21 04:09:48;;;;;;;8.53;7.90;;;;;;;19.09;100.00;96847.44;5011197;28;105291;-77
2023/08/21 04:12:15;;;;;;;9.00;8.20;;;;;;;18.90;100.00;96835.84;5008478;28;105034;-77
2023/08/21 04:14:42;;;;;;;9.33;8.47;;;;;;;18.77;100.00;96841.97;5007714;28;105093;-77
2023/08/21 04:17:10;;;;;;;9.37;8.50;;;;;;;18.68;100.00;96841.00;5008455;28;102105;-77
2023/08/21 04:19:40;;;;;;;8.33;7.63;;;;;;;18.78;100.00;96846.28;5008388;28;103874;-77
2023/08/21 04:22:07;;;;;;;8.00;7.30;;;;;;;18.81;100.00;96854.56;5007400;28;105571;-77
2023/08/21 04:24:34;;;;;;;8.13;7.53;;;;;;;18.79;100.00;96850.56;5008333;28;101838;-73
2023/08/21 04:27:02;;;;;;;9.73;8.73;;;;;;;18.65;100.00;96855.09;5008223;28;104528;-73
2023/08/21 04:29:29;;;;;;;10.90;8.87;;;;;;;18.68;100.00;96851.78;5007470;28;105066;-76
2023/08/21 04:31:56;;;;;;;9.30;8.40;;;;;;;18.72;100.00;96855.50;5011664;28;101855;-74
2023/08/21 04:34:24;;;;;;;9.73;8.83;;;;;;;18.92;100.00;96866.03;5007167;28;105691;-76
2023/08/21 04:36:52;;;;;;;9.07;8.27;;;;;;;18.95;100.00;96857.34;5008896;28;101904;-76
2023/08/21 04:39:19;;;;;;;9.17;8.27;;;;;;;19.00;100.00;96851.88;5009002;28;105228;-76
2023/08/21 04:41:47;;;;;;;9.07;8.03;;;;;;;19.00;100.00;96862.66;5008303;28;105440;-76
2023/08/21 04:44:14;;;;;;;8.23;7.53;;;;;;;18.98;100.00;96859.47;5008808;28;102074;-77
2023/08/21 04:46:43;;;;;;;9.13;8.23;;;;;;;19.06;100.00;96861.50;5008429;28;105203;-78
2023/08/21 04:49:11;;;;;;;8.50;7.80;;;;;;;19.13;100.00;96867.34;5007864;28;104856;-78
2023/08/21 04:51:39;;;;;;;8.03;7.27;;;;;;;19.10;100.00;96865.22;5008601;28;101900;-76
2023/08/21 04:54:06;;;;;;;9.60;7.67;;;;;;;19.09;100.00;96866.31;5011420;28;104875;-77
2023/08/21 04:56:33;;;;;;;8.47;7.63;;;;;;;19.11;100.00;96869.50;5008852;28;101975;-77
2023/08/21 04:59:00;;;;;;;7.53;6.83;;;;;;;19.14;100.00;96871.63;5010356;28;105218;-77
2023/08/21 05:01:30;;;;;;;7.70;7.10;;;;;;;19.24;100.00;96874.22;5011517;28;105164;-77
2023/08/21 05:03:59;;;;;;;8.13;7.43;;;;;;;19.29;100.00;96874.91;5012260;28;101988;-77
2023/08/21 05:06:25;;;;;;;8.17;7.47;;;;;;;19.32;100.00;96878.94;5011953;28;104859;-77
2023/08/21 05:08:54;;;;;;;8.90;8.13;;;;;;;19.41;100.00;96880.66;5011488;28;105134;-77
2023/08/21 05:11:21;;;;;;;8.37;7.70;;;;;;;19.52;100.00;96882.09;5011927;28;101931;-78
2023/08/21 05:13:48;;;;;;;8.77;7.97;;;;;;;19.69;100.00;96881.56;5011986;28;103922;-78
2023/08/21 05:16:18;;;;;;;9.90;8.90;;;;;;;19.77;100.00;96878.16;5014883;28;104182;-78
2023/08/21 05:18:46;;;;;;;10.07;9.03;;;;;;;19.95;100.00;96886.22;5011721;28;104584;-78
2023/08/21 05:21:13;;;;;;;8.90;8.13;;;;;;;19.92;100.00;96886.00;5011196;28;105430;-78
2023/08/21 05:23:40;;;;;;;8.90;8.10;;;;;;;20.08;100.00;96890.06;5011606;28;101899;-78
2023/08/21 05:26:11;;;;;;;9.97;8.97;;;;;;;19.88;100.00;96887.69;5011626;28;105372;-78
2023/08/21 05:28:38;;;;;;;9.23;8.40;;;;;;;19.99;100.00;96892.63;5011434;28;105644;-78
2023/08/21 05:31:04;;;;;;;8.87;8.17;;;;;;;20.02;100.00;96894.75;5011530;28;101975;-78
2023/08/21 05:33:45;;;;;;;9.03;8.23;;;;;;;20.23;100.00;96898.72;5011379;28;104144;-78
2023/08/21 05:36:12;;;;;;;8.80;8.10;;;;;;;20.30;100.00;96891.00;5014425;28;105057;-78
2023/08/21 05:38:39;;;;;;;9.47;8.57;;;;;;;20.50;100.00;96904.09;5011432;28;105251;-78
2023/08/21 05:41:06;;;;;;;8.73;8.03;;;;;;;20.72;100.00;96892.59;5010793;28;105250;-78
2023/08/21 05:43:35;;;;;;;9.30;7.80;;;;;;;20.84;100.00;96892.88;5011508;28;102021;-78
2023/08/21 05:46:02;;;;;;;7.83;7.13;;;;;;;21.09;100.00;96897.78;5010755;28;105237;-78
2023/08/21 05:48:29;;;;;;;8.70;7.90;;;;;;;21.24;100.00;96898.22;5010343;28;105579;-78
2023/08/21 05:50:57;;;;;;;8.00;7.20;;;;;;;21.46;100.00;96892.00;5011281;28;101997;-78
2023/08/21 05:53:23;;;;;;;8.27;7.23;;;;;;;21.57;100.00;96893.41;5011219;28;105156;-78
2023/08/21 05:55:53;;;;;;;8.53;7.67;;;;;;;21.67;100.00;96890.41;5010493;28;105631;-78
2023/08/21 05:58:20;;;;;;;10.80;7.77;;;;;;;21.79;100.00;96893.44;5016015;28;101847;-77
2023/08/21 06:00:48;;;;;;;9.33;7.70;;;;;;;21.83;100.00;96886.25;5010587;28;105686;-77
2023/08/21 06:03:15;;;;;;;8.03;7.23;;;;;;;22.01;100.00;96885.28;5011180;28;101902;-77
2023/08/21 06:06:02;;;;;;;8.30;7.50;;;;;;;21.94;100.00;96893.03;5011244;28;103897;-77
2023/08/21 06:08:29;;;;;;;7.57;6.87;;;;;;;21.97;100.00;96893.19;5010331;28;104287;-77
2023/08/21 06:10:56;;;;;;;7.57;6.83;;;;;;;21.99;100.00;96893.69;5009962;28;102034;-77
2023/08/21 06:13:26;;;;;;;7.67;6.97;;;;;;;22.08;100.00;96891.03;5011260;28;104980;-74
2023/08/21 06:15:58;;;;;;;8.00;7.13;;;;;;;22.03;100.00;96891.16;5006987;28;105513;-74
2023/08/21 06:18:28;;;;;;;7.33;6.63;;;;;;;22.30;100.00;96891.78;5007161;28;102121;-74
2023/08/21 06:20:56;;;;;;;7.97;7.27;;;;;;;22.38;100.00;96890.19;5013546;28;104208;-74
2023/08/21 06:23:26;;;;;;;7.73;6.73;;;;;;;22.46;100.00;96892.19;5008515;28;102046;-74
2023/08/21 06:25:55;;;;;;;7.70;6.97;;;;;;;22.61;100.00;96895.28;5010596;28;104972;-74
2023/08/21 06:28:32;;;;;;;7.00;6.40;;;;;;;22.83;100.00;96894.38;5009679;28;105506;-73
2023/08/21 06:31:03;;;;;;;7.50;6.80;;;;;;;22.68;100.00;96889.41;5010322;28;103041;-74
2023/08/21 06:33:31;;;;;;;6.97;6.27;;;;;;;22.87;100.00;96889.91;5010816;28;104892;-74
2023/08/21 06:36:02;;;;;;;8.63;6.70;;;;;;;22.83;100.00;96895.16;5009995;28;105700;-74
2023/08/21 06:38:34;;;;;;;7.40;6.70;;;;;;;22.60;100.00;96892.88;5010413;28;101923;-74
2023/08/21 06:41:04;;;;;;;7.70;6.90;;;;;;;22.53;100.00;96903.38;5010433;28;105440;-74
2023/08/21 06:43:37;;;;;;;9.10;6.80;;;;;;;22.64;100.00;96905.50;5013389;28;105480;-74
2023/08/21 06:46:08;;;;;;;10.17;6.90;;;;;;;22.75;100.00;96895.97;5009709;28;105116;-74
2023/08/21 06:48:37;;;;;;;7.70;7.00;;;;;;;22.71;100.00;96899.59;5009746;28;104594;-74
2023/08/21 06:51:04;;;;;;;7.63;6.53;;;;;;;22.66;100.00;96902.47;5010446;28;101949;-74
2023/08/21 06:53:31;;;;;;;8.03;6.70;;;;;;;22.90;100.00;96892.00;5011536;28;102606;-74
2023/08/21 06:55:58;;;;;;;6.53;5.90;;;;;;;22.93;100.00;96900.31;5009330;28;105758;-74
2023/08/21 06:58:25;;;;;;;6.00;5.50;;;;;;;23.10;100.00;96902.25;5010207;28;101922;-74
2023/08/21 07:00:52;;;;;;;5.53;4.70;;;;;;;23.39;100.00;96892.41;5008473;28;105429;-75
2023/08/21 07:03:20;;;;;;;5.83;5.33;;;;;;;23.49;100.00;96888.56;5009467;28;105147;-75
2023/08/21 07:05:48;;;;;;;5.80;5.10;;;;;;;23.67;100.00;96890.16;5013450;28;101933;-74
2023/08/21 07:08:14;;;;;;;6.83;5.40;;;;;;;23.64;100.00;96890.81;5009459;28;105096;-74
2023/08/21 07:10:41;;;;;;;6.07;5.57;;;;;;;23.91;100.00;96890.47;5010030;28;101973;-74
2023/08/21 07:13:08;;;;;;;5.93;5.43;;;;;;;24.10;100.00;96889.00;5010090;28;105199;-74
2023/08/21 07:15:35;;;;;;;5.83;5.10;;;;;;;24.39;100.00;96893.69;5009040;28;105792;-75
2023/08/21 07:18:02;;;;;;;5.97;5.43;;;;;;;24.20;100.00;96899.50;5009899;28;102129;-74
2023/08/21 07:20:30;;;;;;;6.03;5.43;;;;;;;24.42;100.00;96896.53;5009857;28;105364;-75
2023/08/21 07:22:57;;;;;;;5.77;5.17;;;;;;;24.16;100.00;96903.19;5009168;28;105718;-75
2023/08/21 07:25:25;;;;;;;6.80;5.30;;;;;;;24.17;100.00;96907.50;5001430;28;103043;-74
2023/08/21 07:27:53;;;;;;;8.77;5.10;;;;;;;24.32;100.00;96891.47;5012338;28;104016;-74
2023/08/21 07:30:20;;;;;;;6.60;5.90;;;;;;;24.49;100.00;96896.84;5009837;28;101916;-74
2023/08/21 07:32:47;;;;;;;6.07;5.30;;;;;;;24.78;100.00;96898.81;5009901;28;104950;-75
2023/08/21 07:35:14;;;;;;;5.40;4.73;;;;;;;25.08;100.00;96900.41;5008824;28;105687;-74
2023/08/21 07:37:44;;;;;;;5.00;4.60;;;;;;;25.24;100.00;96904.13;5008456;28;102011;-75
2023/08/21 07:40:12;;;;;;;4.83;4.43;;;;;;;24.96;100.00;96900.31;5009468;28;104370;-74
2023/08/21 07:42:41;;;;;;;10.63;4.40;;;;;;;25.05;100.00;96898.31;5008920;28;105600;-75
2023/08/21 07:45:11;;;;;;;5.87;4.17;;;;;;;25.06;100.00;96905.38;5009511;28;102019;-74
2023/08/21 07:47:43;;;;;;;6.00;4.50;;;;;;;25.30;100.00;96900.13;5012096;28;104865;-75
2023/08/21 07:50:17;;;;;;;4.70;4.30;;;;;;;25.31;100.00;96902.50;5009634;28;101893;-74
2023/08/21 07:52:47;;;;;;;5.30;4.43;;;;;;;25.46;100.00;96903.84;5009290;28;105743;-74
2023/08/21 07:55:13;;;;;;;6.43;4.40;;;;;;;25.36;100.00;96904.25;5008726;28;105711;-75
2023/08/21 07:57:40;;;;;;;5.70;4.77;;;;;;;25.63;100.00;96911.88;5010228;28;102156;-75
2023/08/21 08:00:09;;;;;;;4.63;4.00;;;;;;;25.40;100.00;96910.63;5009290;28;105356;-74
2023/08/21 08:02:40;;;;;;;6.90;4.80;;;;;;;25.50;100.00;96902.06;5006746;28;102519;-75
2023/08/21 08:05:07;;;;;;;7.30;4.13;;;;;;;25.86;100.00;96900.28;5009322;28;101883;-74
2023/08/21 08:07:35;;;;;;;5.20;4.70;;;;;;;26.14;100.00;96909.47;5010537;28;102717;-74
2023/08/21 08:10:03;;;;;;;6.13;4.07;;;;;;;25.95;100.00;96903.75;5011927;28;105424;-75
2023/08/21 08:12:30;;;;;;;4.90;4.13;;;;;;;26.31;100.00;96905.78;5009137;28;105474;-75
2023/08/21 08:14:57;;;;;;;6.80;4.70;;;;;;;26.55;100.00;96908.56;5008183;28;105210;-75
2023/08/21 08:17:24;;;;;;;4.73;3.90;;;;;;;26.51;100.00;96908.44;5009027;28;101881;-75
2023/08/21 08:19:51;;;;;;;6.80;4.30;;;;;;;26.52;100.00;96906.47;5008849;28;105040;-74
2023/08/21 08:22:18;;;;;;;6.03;4.20;;;;;;;26.69;100.00;96909.06;5008571;28;105809;-74
2023/08/21 08:24:44;;;;;;;6.07;3.93;;;;;;;26.77;100.00;96908.13;5008870;28;102012;-74
2023/08/21 08:27:13;;;;;;;5.77;4.40;;;;;;;26.55;100.00;96895.75;5008597;28;105182;-75
2023/08/21 08:29:40;;;;;;;5.73;3.90;;;;;;;26.81;100.00;96906.31;5008416;28;105476;-75
2023/08/21 08:32:07;;;;;;;4.67;4.27;;;;;;;26.95;100.00;96906.75;5012260;28;102344;-75
2023/08/21 08:34:34;;;;;;;5.53;3.90;;;;;;;26.96;100.00;96909.16;5010944;28;104067;-74
2023/08/21 08:37:00;;;;;;;6.40;4.33;;;;;;;27.26;100.00;96899.59;5012347;28;102034;-73
2023/08/21 08:39:27;;;;;;;6.60;4.30;;;;;;;27.23;100.00;96904.94;5012224;28;105064;-73
2023/08/21 08:41:59;;;;;;;4.97;4.13;;;;;;;27.41;100.00;96900.81;5012968;28;102359;-73
2023/08/21 08:44:28;;;;;;;6.73;4.37;;;;;;;27.63;100.00;96905.75;5012506;28;102153;-72
2023/08/21 08:46:55;;;;;;;7.73;4.37;;;;;;;27.79;100.00;96903.91;5011579;28;105579;-72
2023/08/21 08:49:23;;;;;;;6.20;4.13;;;;;;;27.50;100.00;96901.44;5011428;28;105844;-73
2023/08/21 08:51:53;;;;;;;5.50;4.10;;;;;;;27.61;100.00;96908.03;5012298;28;102032;-72
2023/08/21 08:54:21;;;;;;;5.90;4.30;;;;;;;27.75;100.00;96903.78;5014981;28;105496;-72
2023/08/21 08:56:48;;;;;;;5.90;4.20;;;;;;;28.00;100.00;96907.25;5013520;28;101727;-72
2023/08/21 08:59:15;;;;;;;4.20;3.80;;;;;;;28.05;100.00;96901.50;5012057;28;104849;-72
2023/08/21 09:01:44;;;;;;;6.87;4.40;;;;;;;28.19;100.00;96899.16;5011462;28;105887;-73
2023/08/21 09:04:11;;;;;;;4.07;3.77;;;;;;;28.58;100.00;96900.97;5013163;28;101868;-73
2023/08/21 09:06:39;;;;;;;4.60;3.67;;;;;;;28.47;100.00;96902.66;5010739;28;105238;-73
2023/08/21 09:09:10;;;;;;;7.23;5.07;;;;;;;28.37;100.00;96898.47;5012474;28;102805;-73
2023/08/21 09:11:43;;;;;;;5.50;3.83;;;;;;;28.52;100.00;96896.91;4992017;28;101946;-72
2023/08/21 09:14:11;;;;;;;4.60;4.20;;;;;;;28.70;100.00;96892.66;4992076;28;105416;-72
2023/08/21 09:16:38;;;;;;;6.40;4.10;;;;;;;28.97;100.00;96889.06;5006829;28;105379;-73
2023/08/21 09:19:06;;;;;;;4.43;4.03;;;;;;;28.93;100.00;96896.38;5011448;28;105356;-74
2023/08/21 09:21:33;;;;;;;6.37;4.57;;;;;;;28.76;100.00;96891.28;5011282;28;105639;-73
2023/08/21 09:24:02;;;;;;;5.80;4.00;;;;;;;29.09;100.00;96891.69;5011391;28;102093;-73
2023/08/21 09:26:32;;;;;;;5.43;4.20;;;;;;;29.25;100.00;96889.72;5011569;28;105117;-73
2023/08/21 09:29:03;;;;;;;5.03;4.32;;;;;;;29.22;97.21;96893.97;5010996;28;106126;-73
2023/08/21 09:31:32;;;;;;;6.85;4.03;;;;;;;29.27;100.00;96890.16;5011635;28;102121;-73
2023/08/21 09:34:00;;;;;;;6.65;4.20;;;;;;;28.99;100.00;96884.81;5012948;28;102850;-73
2023/08/21 09:36:29;;;;;;;6.40;3.83;;;;;;;29.52;100.00;96886.78;5010620;28;105636;-73
2023/08/21 09:38:56;;;;;;;5.80;3.90;;;;;;;29.79;94.03;96893.22;5016093;28;101887;-73
2023/08/21 09:41:24;;;;;;;4.72;3.83;;;;;;;29.83;96.56;96885.88;5010749;28;105596;-73
2023/08/21 09:43:51;;;;;;;5.25;4.22;;;;;;;30.22;93.46;96885.50;5011431;28;102029;-73
2023/08/21 09:46:25;;;;;;;4.80;4.00;;;;;;;30.32;96.57;96884.09;4998700;28;104927;-73
2023/08/21 09:48:53;;;;;;;5.90;4.47;;;;;;;30.29;100.00;96873.88;5011083;28;105135;-73
2023/08/21 09:51:20;;;;;;;6.53;4.10;;;;;;;30.34;93.15;96876.31;5011275;28;101964;-73
2023/08/21 09:53:49;;;;;;;4.95;3.80;;;;;;;30.69;83.63;96871.44;5011601;28;105310;-74
2023/08/21 09:56:18;;;;;;;4.35;3.95;;;;;;;30.67;83.29;96871.03;5010355;28;102766;-72
2023/08/21 09:58:45;;;;;;;4.15;3.75;;;;;;;30.96;89.03;96868.34;5014560;28;102191;-72
2023/08/21 10:01:13;;;;;;;7.32;3.88;;;;;;;31.30;85.20;96863.75;5011559;28;103400;-73
2023/08/21 10:03:41;;;;;;;5.78;3.78;;;;;;;31.16;76.85;96860.81;5011152;28;101864;-74
2023/08/21 10:06:10;;;;;;;5.57;3.80;;;;;;;31.46;81.10;96864.38;5010677;28;104831;-76
2023/08/21 10:08:40;;;;;;;6.68;4.03;;;;;;;30.94;70.81;96861.66;5010363;28;105333;-74
2023/08/21 10:11:10;;;;;;;5.82;3.90;;;;;;;31.24;70.66;96860.56;5010919;28;101874;-73
2023/08/21 10:13:39;;;;;;;5.30;4.22;;;;;;;31.68;62.63;96866.22;5010975;28;105306;-76
2023/08/21 10:16:08;;;;;;;3.80;3.50;;;;;;;31.46;62.97;96851.44;5010103;28;105553;-73
2023/08/21 10:18:37;;;;;;;6.28;3.58;;;;;;;32.08;66.44;96856.13;5010710;28;101797;-73
2023/08/21 10:21:14;;;;;;;5.80;3.58;;;;;;;32.04;60.86;96852.53;5013460;28;105099;-73
2023/08/21 10:23:42;;;;;;;6.47;3.88;;;;;;;31.29;55.57;96862.19;5010536;28;101953;-73
2023/08/21 10:26:11;;;;;;;3.83;3.53;;;;;;;31.79;61.69;96856.97;5010463;28;105795;-73
2023/08/21 10:28:50;;;;;;;5.43;3.63;;;;;;;32.06;59.61;96855.72;5009890;28;105844;-73
2023/08/21 10:31:34;;;;;;;5.05;3.95;;;;;;;32.06;58.65;96852.16;5010654;28;101882;-73
2023/08/21 10:34:03;;;;;;;4.25;3.53;;;;;;;32.10;67.34;96847.50;5012179;28;101748;-73
2023/08/21 10:37:04;;;;;;;5.30;3.58;;;;;;;31.97;56.94;96848.91;5038956;27;105678;-77
2023/08/21 10:39:33;;;;;;;6.35;3.67;;;;;;;32.34;54.79;96853.28;5010879;28;101854;-74
2023/08/21 10:42:04;;;;;;;4.43;3.60;;;;;;;32.39;57.43;96843.88;5010498;28;105499;-74
2023/08/21 10:44:38;;;;;;;3.78;3.40;;;;;;;32.91;54.18;96843.53;5013175;28;105595;-74
2023/08/21 10:47:16;;;;;;;3.78;3.30;;;;;;;33.21;55.11;96844.13;5009450;28;105303;-74
2023/08/21 10:49:44;;;;;;;5.93;3.60;;;;;;;32.41;54.95;96836.81;5009754;28;104522;-73
2023/08/21 10:52:11;;;;;;;4.45;3.63;;;;;;;32.70;55.25;96835.88;5011251;28;101947;-73
2023/08/21 10:54:46;;;;;;;3.90;3.45;;;;;;;32.94;57.23;96838.06;5011611;28;102626;-73
2023/08/21 10:57:15;;;;;;;4.20;3.80;;;;;;;33.43;58.01;96845.84;5009995;28;102930;-73
2023/08/21 10:59:53;;;;;;;3.78;3.33;;;;;;;33.27;50.97;96839.81;5010191;28;102172;-73
2023/08/21 11:02:20;;;;;;;4.85;3.53;;;;;;;33.39;58.69;96847.81;5010080;28;105066;-73
2023/08/21 11:04:47;;;;;;;5.25;3.72;;;;;;;33.82;55.87;96841.31;5009350;28;104002;-73
2023/08/21 11:07:14;;;;;;;3.80;3.50;;;;;;;34.05;52.99;96850.06;5012931;28;102207;-73
2023/08/21 11:09:41;;;;;;;4.05;3.55;;;;;;;34.23;55.94;96845.38;5009530;28;105588;-72
2023/08/21 11:12:10;;;;;;;4.85;3.97;;;;;;;34.72;53.73;96840.72;5011555;28;102056;-73
2023/08/21 11:14:39;;;;;;;3.95;3.65;;;;;;;34.61;56.44;96845.47;5009991;28;104994;-75
2023/08/21 11:17:06;;;;;;;4.13;3.70;;;;;;;34.19;67.45;96839.84;5009128;28;105640;-75
2023/08/21 11:19:33;;;;;;;7.55;3.97;;;;;;;34.71;56.23;96839.13;5009880;28;101984;-74
2023/08/21 11:22:03;;;;;;;4.32;3.85;;;;;;;34.68;54.23;96842.69;5009663;28;105161;-74
2023/08/21 11:24:32;;;;;;;4.43;3.90;;;;;;;34.56;52.81;96840.31;5009088;28;106465;-75